Time;durP1;ratioP1;P1;durP2;ratioP2;P2;SDS_P1;SDS_P2;PMS_P1;PMS_P2;Temp;Humidity;BMP_temperature;BMP_pressure;BME280_temperature;BME280_humidity;BME280_pressure;Samples;Min_cycle;Max_cycle;Signal;HPM_P1;HPM_P2
2021/09/25 00:07:59;;;;;;;19.08;10.13;;;;;;;;;;21176904;28;20047;-61
2021/09/25 00:18:06;;;;;;;20.30;13.38;;;;;;;;;;21175828;28;20062;-62
2021/09/25 00:28:07;;;;;;;26.13;15.30;;;;;;;;;;21175064;28;20052;-59
2021/09/25 00:38:09;;;;;;;26.95;16.20;;;;;;;;;;21173982;28;20135;-58
2021/09/25 00:48:11;;;;;;;29.90;19.20;;;;;;;;;;21173545;28;20468;-58
2021/09/25 00:58:13;;;;;;;31.65;19.67;;;;;;;;;;21171804;28;20083;-57
2021/09/25 01:08:14;;;;;;;33.78;19.73;;;;;;;;;;21172474;28;20044;-59
2021/09/25 01:18:18;;;;;;;37.75;20.42;;;;;;;;;;21171430;28;20112;-64
2021/09/25 01:28:19;;;;;;;39.65;22.08;;;;;;;;;;21171179;28;20472;-60
2021/09/25 01:38:22;;;;;;;40.63;22.23;;;;;;;;;;21169712;28;20051;-55
2021/09/25 01:48:34;;;;;;;34.90;22.17;;;;;;;;;;21169293;28;20048;-62
2021/09/25 01:58:42;;;;;;;34.72;20.60;;;;;;;;;;21168215;28;20075;-52
2021/09/25 02:08:45;;;;;;;29.30;20.40;;;;;;;;;;21167856;28;20123;-56
2021/09/25 02:18:48;;;;;;;33.00;19.88;;;;;;;;;;21166635;28;20051;-54
2021/09/25 02:28:50;;;;;;;30.10;19.33;;;;;;;;;;21165894;28;20066;-52
2021/09/25 02:38:53;;;;;;;27.38;19.08;;;;;;;;;;21165104;28;20126;-52
2021/09/25 02:48:56;;;;;;;27.23;18.02;;;;;;;;;;21164219;28;20083;-51
2021/09/25 02:59:00;;;;;;;31.97;18.20;;;;;;;;;;21165068;28;20071;-52
2021/09/25 03:09:02;;;;;;;28.85;16.92;;;;;;;;;;21163075;28;20100;-60
2021/09/25 03:19:04;;;;;;;22.40;16.20;;;;;;;;;;21171034;28;20104;-61
2021/09/25 03:29:08;;;;;;;27.15;18.58;;;;;;;;;;21191836;28;20051;-51
2021/09/25 03:39:12;;;;;;;20.00;15.15;;;;;;;;;;21190206;28;20135;-51
2021/09/25 03:49:14;;;;;;;19.88;13.23;;;;;;;;;;21190876;28;20104;-53
2021/09/25 03:59:16;;;;;;;17.75;12.02;;;;;;;;;;21189691;28;20159;-54
2021/09/25 04:09:19;;;;;;;17.67;12.57;;;;;;;;;;21189895;28;20497;-53
2021/09/25 04:19:29;;;;;;;15.05;10.25;;;;;;;;;;21189711;28;20601;-51
2021/09/25 04:29:32;;;;;;;11.70;9.73;;;;;;;;;;21166731;28;20070;-52
2021/09/25 04:39:35;;;;;;;13.43;8.23;;;;;;;;;;21174247;28;20048;-51
2021/09/25 04:49:43;;;;;;;10.57;8.50;;;;;;;;;;21174147;28;20046;-53
2021/09/25 04:59:45;;;;;;;17.85;10.90;;;;;;;;;;21173005;28;20056;-51
2021/09/25 05:09:49;;;;;;;15.65;8.30;;;;;;;;;;21172893;28;20505;-50
2021/09/25 05:19:52;;;;;;;11.83;8.53;;;;;;;;;;21171815;28;20052;-52
2021/09/25 05:29:54;;;;;;;12.65;7.32;;;;;;;;;;21170902;28;20039;-52
2021/09/25 05:39:56;;;;;;;10.65;7.78;;;;;;;;;;21169109;28;20118;-51
2021/09/25 05:49:59;;;;;;;10.18;7.65;;;;;;;;;;21168964;28;20048;-51
2021/09/25 06:00:01;;;;;;;8.55;6.00;;;;;;;;;;21168427;28;20086;-54
2021/09/25 06:10:04;;;;;;;8.05;6.68;;;;;;;;;;21166939;28;20045;-61
2021/09/25 06:20:09;;;;;;;9.13;7.07;;;;;;;;;;21166509;28;20108;-52
2021/09/25 06:30:12;;;;;;;9.35;6.85;;;;;;;;;;21148337;28;20138;-55
2021/09/25 06:40:14;;;;;;;9.13;7.05;;;;;;;;;;21164831;28;20043;-54
2021/09/25 06:50:17;;;;;;;8.68;6.63;;;;;;;;;;21164405;28;20054;-59
2021/09/25 07:00:19;;;;;;;8.48;6.47;;;;;;;;;;21163069;28;20051;-59
2021/09/25 07:10:23;;;;;;;;;;;;;;;;;;21163988;28;20051;-52
2021/09/25 07:20:25;;;;;;;9.57;7.18;;;;;;;;;;21163653;28;20271;-56
2021/09/25 07:30:28;;;;;;;6.93;5.28;;;;;;;;;;21162998;28;20075;-54
2021/09/25 07:40:31;;;;;;;6.03;4.85;;;;;;;;;;21160981;28;20134;-52
2021/09/25 07:50:33;;;;;;;5.63;4.97;;;;;;;;;;21162611;28;20056;-53
2021/09/25 08:00:39;;;;;;;4.43;3.53;;;;;;;;;;21143439;28;20055;-52
2021/09/25 08:10:42;;;;;;;5.05;3.53;;;;;;;;;;21164526;28;20059;-51
2021/09/25 08:20:44;;;;;;;7.75;4.28;;;;;;;;;;21176396;28;20498;-52
2021/09/25 08:30:47;;;;;;;5.80;3.23;;;;;;;;;;21176273;28;20043;-53
2021/09/25 08:40:50;;;;;;;5.07;3.13;;;;;;;;;;21174142;28;20039;-61
2021/09/25 08:50:57;;;;;;;7.00;3.00;;;;;;;;;;21173828;28;20043;-56
2021/09/25 09:01:02;;;;;;;7.40;5.00;;;;;;;;;;21154669;28;20059;-53
2021/09/25 09:11:06;;;;;;;8.90;6.00;;;;;;;;;;21173304;28;20483;-52
2021/09/25 09:21:08;;;;;;;7.20;5.38;;;;;;;;;;21169921;28;20058;-62
2021/09/25 09:31:11;;;;;;;4.77;3.33;;;;;;;;;;21170929;28;20054;-55
2021/09/25 09:41:16;;;;;;;2.83;2.25;;;;;;;;;;21169177;28;20047;-65
2021/09/25 09:51:33;;;;;;;4.03;3.00;;;;;;;;;;21168756;28;20533;-66
2021/09/25 10:01:37;;;;;;;5.28;2.60;;;;;;;;;;21167822;28;20055;-53
2021/09/25 10:11:40;;;;;;;4.78;2.65;;;;;;;;;;21167263;28;20116;-53
2021/09/25 10:21:42;;;;;;;;;;;;;;;;;;21166733;28;20132;-64
2021/09/25 10:31:45;;;;;;;5.72;3.40;;;;;;;;;;21163891;28;19926;-66
2021/09/25 10:41:47;;;;;;;7.87;3.20;;;;;;;;;;21164146;28;20139;-63
2021/09/25 10:51:51;;;;;;;3.28;1.73;;;;;;;;;;21164007;28;20058;-65
2021/09/25 11:01:55;;;;;;;4.15;2.13;;;;;;;;;;21163784;28;20499;-65
2021/09/25 11:11:57;;;;;;;;;;;;;;;;;;21164396;28;20503;-63
2021/09/25 11:22:01;;;;;;;4.63;2.15;;;;;;;;;;21162380;28;19919;-65
2021/09/25 11:32:08;;;;;;;3.63;1.87;;;;;;;;;;21161880;28;20097;-59
2021/09/25 11:42:27;;;;;;;2.63;2.10;;;;;;;;;;21169375;28;20055;-52
2021/09/25 11:52:35;;;;;;;2.67;1.50;;;;;;;;;;21178025;28;20052;-54
2021/09/25 12:02:41;;;;;;;2.30;1.65;;;;;;;;;;21177744;28;20150;-53
2021/09/25 12:12:44;;;;;;;4.53;1.48;;;;;;;;;;21164826;28;20052;-55
2021/09/25 12:22:47;;;;;;;;;;;;;;;;;;21091803;28;20052;-54
2021/09/25 12:33:00;;;;;;;4.65;2.47;;;;;;;;;;21090427;28;19920;-63
2021/09/25 12:43:04;;;;;;;3.85;2.20;;;;;;;;;;21089646;28;20146;-62
2021/09/25 12:53:15;;;;;;;4.27;2.13;;;;;;;;;;21088090;28;20097;-55
2021/09/25 13:03:23;;;;;;;3.33;1.67;;;;;;;;;;21088721;28;20044;-52
2021/09/25 13:13:25;;;;;;;3.65;1.52;;;;;;;;;;21087197;28;20044;-53
2021/09/25 13:23:28;;;;;;;7.57;3.70;;;;;;;;;;21086112;28;20048;-52
2021/09/25 13:33:31;;;;;;;11.07;7.03;;;;;;;;;;21085465;28;20052;-53
2021/09/25 13:43:33;;;;;;;4.93;1.70;;;;;;;;;;21084634;28;20079;-56
2021/09/25 13:53:35;;;;;;;4.90;3.20;;;;;;;;;;21084387;28;20534;-61
2021/09/25 14:03:38;;;;;;;4.00;1.80;;;;;;;;;;21082569;28;20052;-56
2021/09/25 14:13:40;;;;;;;;;;;;;;;;;;21082790;28;20160;-63
2021/09/25 14:23:43;;;;;;;3.55;1.48;;;;;;;;;;21081823;28;19924;-62
2021/09/25 14:33:45;;;;;;;3.60;1.88;;;;;;;;;;21082111;28;20117;-53
2021/09/25 14:43:48;;;;;;;3.30;1.65;;;;;;;;;;21080213;28;20062;-62
2021/09/25 14:53:50;;;;;;;3.43;1.83;;;;;;;;;;21080012;28;20201;-65
2021/09/25 15:03:54;;;;;;;5.90;1.70;;;;;;;;;;21079925;28;20116;-61
2021/09/25 15:13:57;;;;;;;3.30;1.40;;;;;;;;;;21078160;28;20134;-65
2021/09/25 15:23:59;;;;;;;1.83;1.25;;;;;;;;;;21079099;28;20393;-53
2021/09/25 15:34:02;;;;;;;2.53;1.40;;;;;;;;;;21078178;28;20131;-54
2021/09/25 15:44:07;;;;;;;2.47;1.30;;;;;;;;;;21077563;28;20046;-55
2021/09/25 15:54:09;;;;;;;2.42;1.52;;;;;;;;;;21077324;28;20404;-52
2021/09/25 16:04:15;;;;;;;3.70;1.45;;;;;;;;;;21076827;28;20123;-53
2021/09/25 16:14:18;;;;;;;;;;;;;;;;;;21077444;28;20389;-52
2021/09/25 16:24:20;;;;;;;7.28;4.68;;;;;;;;;;21077474;28;19982;-53
2021/09/25 16:34:22;;;;;;;2.33;1.47;;;;;;;;;;21090366;28;20093;-53
2021/09/25 16:44:25;;;;;;;3.22;1.60;;;;;;;;;;21088994;28;20059;-52
2021/09/25 16:54:27;;;;;;;2.27;1.67;;;;;;;;;;21089355;28;20113;-53
2021/09/25 17:04:29;;;;;;;2.57;1.10;;;;;;;;;;21088376;28;20113;-55
2021/09/25 17:14:32;;;;;;;3.75;1.80;;;;;;;;;;21087625;28;20510;-52
2021/09/25 17:24:36;;;;;;;3.63;1.57;;;;;;;;;;21087697;28;20404;-58
2021/09/25 17:34:38;;;;;;;2.50;1.73;;;;;;;;;;21085781;28;20385;-54
2021/09/25 17:44:41;;;;;;;2.10;1.50;;;;;;;;;;21084669;28;20048;-52
2021/09/25 17:54:43;;;;;;;3.07;1.70;;;;;;;;;;21084538;28;20533;-51
2021/09/25 18:04:45;;;;;;;3.97;1.87;;;;;;;;;;21083579;28;20439;-53
2021/09/25 18:14:49;;;;;;;2.70;2.20;;;;;;;;;;21082657;28;20087;-54
2021/09/25 18:24:53;;;;;;;3.15;1.70;;;;;;;;;;21082696;28;20044;-54
2021/09/25 18:34:57;;;;;;;6.53;2.20;;;;;;;;;;21081185;28;20105;-60
2021/09/25 18:44:59;;;;;;;4.53;2.97;;;;;;;;;;21081636;28;20549;-59
2021/09/25 18:55:03;;;;;;;5.07;2.90;;;;;;;;;;21079024;28;20102;-60
2021/09/25 19:05:05;;;;;;;5.13;2.78;;;;;;;;;;21079216;28;20052;-57
2021/09/25 19:15:08;;;;;;;5.13;2.70;;;;;;;;;;21078750;28;20062;-53
2021/09/25 19:25:10;;;;;;;10.77;7.13;;;;;;;;;;21078074;28;20040;-52
2021/09/25 19:35:12;;;;;;;8.75;5.45;;;;;;;;;;21078158;28;20074;-60
2021/09/25 19:45:14;;;;;;;10.27;4.93;;;;;;;;;;21078448;28;20052;-51
2021/09/25 19:55:17;;;;;;;11.48;8.82;;;;;;;;;;21077720;28;20480;-63
2021/09/25 20:05:19;;;;;;;4.32;2.90;;;;;;;;;;21087722;28;20060;-61
2021/09/25 20:15:22;;;;;;;5.15;2.63;;;;;;;;;;21093573;28;20101;-52
2021/09/25 20:25:24;;;;;;;4.70;2.83;;;;;;;;;;21092204;28;20044;-61
2021/09/25 20:35:26;;;;;;;5.43;2.45;;;;;;;;;;21091292;28;20052;-52
2021/09/25 20:45:31;;;;;;;3.65;2.42;;;;;;;;;;21090916;28;20052;-55
2021/09/25 20:55:33;;;;;;;4.43;2.83;;;;;;;;;;21089359;28;20091;-54
2021/09/25 21:05:36;;;;;;;6.10;2.33;;;;;;;;;;21089061;28;20048;-61
2021/09/25 21:15:38;;;;;;;3.25;2.20;;;;;;;;;;21087437;28;20048;-53
2021/09/25 21:25:43;;;;;;;6.13;3.67;;;;;;;;;;21088330;28;20055;-56
2021/09/25 21:35:46;;;;;;;4.65;1.90;;;;;;;;;;21086233;28;20488;-62
2021/09/25 21:45:49;;;;;;;3.92;2.30;;;;;;;;;;21085708;28;20101;-52
2021/09/25 21:55:52;;;;;;;4.53;2.40;;;;;;;;;;21085317;28;20044;-52
2021/09/25 22:05:54;;;;;;;4.03;2.40;;;;;;;;;;21084396;28;20090;-65
2021/09/25 22:15:56;;;;;;;3.80;2.40;;;;;;;;;;21084120;28;20051;-52
2021/09/25 22:25:59;;;;;;;7.90;3.90;;;;;;;;;;21082665;28;20040;-60
2021/09/25 22:36:03;;;;;;;5.55;2.55;;;;;;;;;;21081933;28;20056;-62
2021/09/25 22:46:07;;;;;;;5.95;2.88;;;;;;;;;;21080761;28;20105;-53
2021/09/25 22:56:09;;;;;;;3.88;2.65;;;;;;;;;;21079979;28;20121;-52
2021/09/25 23:06:12;;;;;;;3.40;2.70;;;;;;;;;;21078759;28;20048;-55
2021/09/25 23:16:14;;;;;;;3.78;2.40;;;;;;;;;;21079995;28;20052;-59
2021/09/25 23:26:19;;;;;;;4.30;3.10;;;;;;;;;;21080152;28;20078;-53
2021/09/25 23:36:22;;;;;;;5.13;2.53;;;;;;;;;;21083763;28;20088;-65
2021/09/25 23:46:26;;;;;;;4.53;2.65;;;;;;;;;;21095710;28;20051;-52
2021/09/25 23:56:31;;;;;;;3.25;2.10;;;;;;;;;;21094225;28;20058;-53
